createdAt,value
2018-09-24T00:01:41.893Z,5.87
2018-09-24T00:04:09.730Z,8.63
2018-09-24T00:06:37.572Z,7.67
2018-09-24T00:09:07.816Z,6.13
2018-09-24T00:11:35.952Z,8.63
2018-09-24T00:14:03.768Z,12.33
2018-09-24T00:16:31.660Z,10.40
2018-09-24T00:18:59.396Z,9.40
2018-09-24T00:21:27.410Z,9.83
2018-09-24T00:23:55.225Z,9.27
2018-09-24T00:26:22.986Z,9.87
2018-09-24T00:28:50.773Z,11.27
2018-09-24T00:31:18.541Z,7.80
2018-09-24T00:33:46.360Z,14.30
2018-09-24T00:36:14.161Z,15.30
2018-09-24T00:38:42.077Z,15.07
2018-09-24T00:41:09.909Z,15.60
2018-09-24T00:43:38.824Z,13.17
2018-09-24T00:46:05.946Z,11.63
2018-09-24T00:48:33.688Z,16.03
2018-09-24T00:51:01.599Z,16.40
2018-09-24T00:53:29.412Z,15.50
2018-09-24T00:55:57.284Z,17.00
2018-09-24T00:58:25.142Z,15.50
2018-09-24T01:00:52.954Z,13.77
2018-09-24T01:03:20.789Z,18.40
2018-09-24T01:05:48.639Z,17.30
2018-09-24T01:08:16.366Z,16.67
2018-09-24T01:10:44.144Z,16.63
2018-09-24T01:13:11.959Z,18.87
2018-09-24T01:15:39.881Z,16.77
2018-09-24T01:18:07.625Z,17.80
2018-09-24T01:20:35.380Z,14.60
2018-09-24T01:23:03.236Z,14.43
2018-09-24T01:25:31.079Z,15.00
2018-09-24T01:27:58.975Z,14.13
2018-09-24T01:30:26.831Z,13.27
2018-09-24T01:33:01.424Z,11.63
2018-09-24T01:35:29.326Z,10.37
2018-09-24T01:37:57.056Z,10.37
2018-09-24T01:40:24.891Z,10.07
2018-09-24T01:42:52.628Z,7.93
2018-09-24T01:45:20.392Z,7.10
2018-09-24T01:47:48.177Z,10.43
2018-09-24T01:50:15.941Z,9.10
2018-09-24T01:52:43.781Z,9.03
2018-09-24T01:55:11.588Z,8.10
2018-09-24T01:57:39.332Z,12.00
2018-09-24T02:00:07.225Z,8.60
2018-09-24T02:02:35.038Z,11.77
2018-09-24T02:05:02.800Z,10.97
2018-09-24T02:07:30.577Z,9.80
2018-09-24T02:09:58.394Z,8.00
2018-09-24T02:12:26.163Z,6.43
2018-09-24T02:14:53.958Z,6.57
2018-09-24T02:17:22.582Z,6.77
2018-09-24T02:19:51.072Z,10.07
2018-09-24T02:22:26.584Z,7.20
2018-09-24T02:24:55.400Z,9.27
2018-09-24T02:27:23.232Z,6.30
2018-09-24T02:29:50.993Z,7.27
2018-09-24T02:32:18.909Z,8.00
2018-09-24T02:34:47.721Z,8.03
2018-09-24T02:37:16.391Z,7.77
2018-09-24T02:39:44.234Z,7.33
2018-09-24T02:42:12.057Z,5.10
2018-09-24T02:44:39.815Z,7.87
2018-09-24T02:47:07.637Z,7.37
2018-09-24T02:49:35.442Z,7.30
2018-09-24T02:52:04.104Z,7.13
2018-09-24T02:54:33.441Z,6.23
2018-09-24T02:57:01.213Z,7.87
2018-09-24T02:59:29.039Z,6.97
2018-09-24T03:01:56.884Z,5.73
2018-09-24T03:04:24.760Z,6.27
2018-09-24T03:06:52.584Z,5.20
2018-09-24T03:09:20.280Z,8.83
2018-09-24T03:11:48.148Z,6.50
2018-09-24T03:14:23.211Z,10.37
2018-09-24T03:16:51.744Z,8.97
2018-09-24T03:19:19.532Z,9.13
2018-09-24T03:21:47.287Z,6.67
2018-09-24T03:24:15.000Z,4.60
2018-09-24T03:26:43.052Z,7.43
2018-09-24T03:29:21.242Z,10.03
2018-09-24T03:31:49.037Z,7.43
2018-09-24T03:34:17.600Z,8.27
2018-09-24T03:36:45.888Z,7.60
2018-09-24T03:39:13.700Z,4.87
2018-09-24T03:41:41.784Z,4.80
2018-09-24T03:44:10.008Z,8.93
2018-09-24T03:46:38.069Z,10.20
2018-09-24T03:49:05.886Z,6.57
2018-09-24T03:51:33.729Z,6.67
2018-09-24T03:54:01.423Z,8.57
2018-09-24T03:56:29.234Z,5.57
2018-09-24T03:58:57.059Z,5.53
2018-09-24T04:01:24.820Z,2.60
2018-09-24T04:03:52.643Z,4.47
2018-09-24T04:06:26.020Z,7.17
2018-09-24T04:08:59.616Z,7.13
2018-09-24T04:11:33.170Z,7.53
2018-09-24T04:14:06.686Z,9.37
2018-09-24T04:16:40.296Z,4.60
2018-09-24T04:19:13.777Z,6.00
2018-09-24T04:21:47.443Z,5.40
2018-09-24T04:24:20.963Z,4.50
2018-09-24T04:26:54.581Z,3.50
2018-09-24T04:29:28.169Z,9.30
2018-09-24T04:32:01.653Z,5.10
2018-09-24T04:34:35.329Z,4.60
2018-09-24T04:37:08.898Z,5.53
2018-09-24T04:39:42.623Z,4.00
2018-09-24T04:42:15.923Z,5.83
2018-09-24T04:44:49.568Z,3.70
2018-09-24T04:47:23.068Z,3.40
2018-09-24T04:49:56.660Z,4.97
2018-09-24T04:52:30.275Z,4.63
2018-09-24T04:55:03.819Z,4.60
2018-09-24T04:57:37.236Z,3.60
2018-09-24T05:00:11.044Z,5.67
2018-09-24T05:02:44.669Z,4.80
2018-09-24T05:05:18.220Z,5.47
2018-09-24T05:07:51.715Z,3.27
2018-09-24T05:10:25.292Z,3.50
2018-09-24T05:12:58.869Z,4.80
2018-09-24T05:15:32.464Z,7.03
2018-09-24T05:18:05.973Z,4.27
2018-09-24T05:20:39.669Z,7.37
2018-09-24T05:23:13.176Z,3.37
2018-09-24T05:25:46.694Z,5.23
2018-09-24T05:28:20.249Z,2.43
2018-09-24T05:30:53.845Z,5.10
2018-09-24T05:33:27.469Z,4.80
2018-09-24T05:36:00.955Z,4.47
2018-09-24T05:38:34.597Z,4.23
2018-09-24T05:41:08.189Z,3.93
2018-09-24T05:43:41.785Z,6.63
2018-09-24T05:46:15.410Z,4.23
2018-09-24T05:48:48.952Z,4.87
2018-09-24T05:51:22.540Z,2.77
2018-09-24T05:53:56.117Z,6.30
2018-09-24T05:56:29.600Z,5.60
2018-09-24T05:59:03.152Z,4.70
2018-09-24T06:01:36.813Z,5.07
2018-09-24T06:04:10.379Z,5.80
2018-09-24T06:06:43.916Z,4.80
2018-09-24T06:09:17.553Z,5.10
2018-09-24T06:11:51.117Z,2.93
2018-09-24T06:14:24.693Z,4.57
2018-09-24T06:16:58.291Z,3.90
2018-09-24T06:19:32.331Z,5.60
2018-09-24T06:22:05.822Z,3.57
2018-09-24T06:24:39.393Z,5.13
2018-09-24T06:27:13.035Z,4.27
2018-09-24T06:29:46.632Z,5.93
2018-09-24T06:32:20.146Z,1.83
2018-09-24T06:34:53.721Z,4.80
2018-09-24T06:37:27.362Z,3.97
2018-09-24T06:40:00.953Z,5.47
2018-09-24T06:42:34.425Z,5.27
2018-09-24T06:45:08.124Z,3.70
2018-09-24T06:47:41.673Z,4.33
2018-09-24T06:50:15.259Z,4.60
2018-09-24T06:52:48.854Z,4.23
2018-09-24T06:55:22.343Z,6.90
2018-09-24T06:57:55.881Z,8.30
2018-09-24T07:00:29.517Z,4.73
2018-09-24T07:03:03.208Z,4.07
2018-09-24T07:05:36.884Z,7.00
2018-09-24T07:08:10.549Z,4.50
2018-09-24T07:10:44.109Z,4.23
2018-09-24T07:13:17.770Z,5.27
2018-09-24T07:15:51.369Z,3.03
2018-09-24T07:18:24.872Z,8.50
2018-09-24T07:20:58.273Z,2.20
2018-09-24T07:23:31.829Z,4.57
2018-09-24T07:26:05.520Z,5.53
2018-09-24T07:28:39.021Z,3.93
2018-09-24T07:31:13.096Z,3.50
2018-09-24T07:33:46.636Z,3.50
2018-09-24T07:36:20.162Z,3.23
2018-09-24T07:38:53.689Z,6.00
2018-09-24T07:41:27.521Z,3.37
2018-09-24T07:44:01.059Z,6.03
2018-09-24T07:46:34.699Z,4.13
2018-09-24T07:49:08.304Z,3.47
2018-09-24T07:51:41.836Z,6.23
2018-09-24T07:54:15.416Z,5.77
2018-09-24T07:56:49.129Z,4.87
2018-09-24T07:59:22.778Z,5.83
2018-09-24T08:01:56.307Z,4.53
2018-09-24T08:04:29.885Z,3.80
2018-09-24T08:07:03.499Z,4.23
2018-09-24T08:09:37.141Z,5.63
2018-09-24T08:12:11.000Z,3.97
2018-09-24T08:14:44.465Z,3.80
2018-09-24T08:17:18.110Z,6.33
2018-09-24T08:19:51.708Z,4.10
2018-09-24T08:22:25.305Z,4.07
2018-09-24T08:24:59.935Z,3.57
2018-09-24T08:27:33.428Z,2.63
2018-09-24T08:30:07.025Z,2.60
2018-09-24T08:32:40.774Z,5.67
2018-09-24T08:35:14.364Z,5.50
2018-09-24T08:37:47.917Z,4.47
2018-09-24T08:40:21.544Z,7.13
2018-09-24T08:42:55.157Z,4.10
2018-09-24T08:45:53.424Z,5.93
2018-09-24T08:48:27.045Z,3.73
2018-09-24T08:51:00.613Z,3.87
2018-09-24T08:53:34.317Z,4.17
2018-09-24T08:56:08.017Z,4.47
2018-09-24T08:58:41.676Z,4.17
2018-09-24T09:01:15.349Z,5.30
2018-09-24T09:03:48.868Z,5.75
2018-09-24T09:06:22.494Z,4.25
2018-09-24T09:08:56.048Z,3.80
2018-09-24T09:11:29.509Z,6.47
2018-09-24T09:14:03.078Z,5.58
2018-09-24T09:16:54.675Z,6.22
2018-09-24T09:19:28.300Z,5.90
2018-09-24T09:22:01.858Z,5.80
2018-09-24T09:24:35.350Z,5.75
2018-09-24T09:27:09.094Z,3.08
2018-09-24T09:29:42.726Z,6.65
2018-09-24T09:32:16.533Z,4.40
2018-09-24T09:34:50.169Z,5.33
2018-09-24T09:37:23.842Z,2.05
2018-09-24T09:39:57.400Z,4.25
2018-09-24T09:42:30.950Z,4.28
2018-09-24T09:45:04.657Z,4.95
2018-09-24T09:47:38.274Z,4.60
2018-09-24T09:50:11.872Z,4.95
2018-09-24T09:52:45.382Z,3.22
2018-09-24T09:55:18.836Z,3.55
2018-09-24T09:57:52.469Z,5.25
2018-09-24T10:00:26.069Z,6.35
2018-09-24T10:03:01.730Z,3.77
2018-09-24T10:05:35.396Z,6.05
2018-09-24T10:08:09.112Z,3.40
2018-09-24T10:10:42.803Z,5.03
2018-09-24T10:13:16.277Z,6.03
2018-09-24T10:15:49.968Z,8.15
2018-09-24T10:18:23.482Z,4.87
2018-09-24T10:20:57.228Z,4.12
2018-09-24T10:23:30.811Z,4.33
2018-09-24T10:26:04.465Z,4.62
2018-09-24T10:28:38.070Z,4.58
2018-09-24T10:31:11.628Z,4.90
2018-09-24T10:33:45.312Z,6.58
2018-09-24T10:36:19.072Z,5.22
2018-09-24T10:38:52.778Z,4.35
2018-09-24T10:41:26.397Z,3.50
2018-09-24T10:44:03.235Z,2.95
2018-09-24T10:46:36.860Z,4.15
2018-09-24T10:49:10.456Z,5.30
2018-09-24T10:51:43.813Z,4.45
2018-09-24T10:54:17.396Z,2.85
2018-09-24T10:56:50.981Z,3.67
2018-09-24T10:59:24.622Z,6.40
2018-09-24T11:01:58.155Z,3.27
2018-09-24T11:04:31.749Z,3.83
2018-09-24T11:07:05.505Z,3.30
2018-09-24T11:09:39.095Z,3.47
2018-09-24T11:12:12.777Z,4.40
2018-09-24T11:14:46.248Z,5.03
2018-09-24T11:17:19.835Z,3.67
2018-09-24T11:19:53.240Z,4.95
2018-09-24T11:22:26.813Z,4.28
2018-09-24T11:25:00.322Z,2.83
2018-09-24T11:27:33.967Z,3.20
2018-09-24T11:30:07.523Z,4.47
2018-09-24T11:32:41.100Z,4.20
2018-09-24T11:35:14.817Z,2.62
2018-09-24T11:37:48.369Z,2.65
2018-09-24T11:40:21.994Z,4.28
2018-09-24T11:42:55.649Z,5.37
2018-09-24T11:45:29.167Z,4.72
2018-09-24T11:48:02.720Z,2.55
2018-09-24T11:50:36.323Z,4.45
2018-09-24T11:53:09.960Z,3.00
2018-09-24T11:55:43.479Z,4.60
2018-09-24T11:58:17.079Z,5.50
2018-09-24T12:00:50.449Z,4.90
2018-09-24T12:03:24.073Z,3.15
2018-09-24T12:05:57.661Z,6.60
2018-09-24T12:08:31.263Z,5.22
2018-09-24T12:11:04.789Z,6.78
2018-09-24T12:13:38.444Z,1.55
2018-09-24T12:16:12.060Z,5.78
2018-09-24T12:18:45.680Z,4.15
2018-09-24T12:21:19.237Z,4.80
2018-09-24T12:23:52.740Z,3.17
2018-09-24T12:26:26.361Z,4.87
2018-09-24T12:29:00.078Z,3.72
2018-09-24T12:31:33.765Z,5.40
2018-09-24T12:34:07.458Z,5.92
2018-09-24T12:36:41.000Z,3.30
2018-09-24T12:39:14.669Z,7.30
2018-09-24T12:41:48.212Z,7.03
2018-09-24T12:44:21.966Z,4.47
2018-09-24T12:46:55.529Z,4.62
2018-09-24T12:49:29.182Z,5.30
2018-09-24T12:52:02.850Z,4.95
2018-09-24T12:54:36.500Z,4.50
2018-09-24T12:57:10.110Z,3.77
2018-09-24T12:59:43.777Z,4.78
2018-09-24T13:02:17.435Z,5.80
2018-09-24T13:04:51.062Z,8.13
2018-09-24T13:07:24.657Z,4.08
2018-09-24T13:09:58.272Z,2.30
2018-09-24T13:12:31.830Z,1.85
2018-09-24T13:15:05.368Z,10.45
2018-09-24T13:17:38.804Z,4.40
2018-09-24T13:20:12.457Z,3.98
2018-09-24T13:22:46.103Z,2.35
2018-09-24T13:25:19.678Z,3.52
2018-09-24T13:27:53.272Z,1.95
2018-09-24T13:30:26.916Z,3.83
2018-09-24T13:33:00.546Z,3.30
2018-09-24T13:35:34.147Z,2.55
2018-09-24T13:38:07.781Z,1.40
2018-09-24T13:40:41.296Z,3.87
2018-09-24T13:43:14.915Z,3.12
2018-09-24T13:45:48.590Z,3.72
2018-09-24T13:48:22.204Z,3.22
2018-09-24T13:50:55.776Z,3.67
2018-09-24T13:53:29.397Z,4.80
2018-09-24T13:56:02.862Z,3.98
2018-09-24T13:58:36.477Z,1.98
2018-09-24T14:01:10.086Z,4.97
2018-09-24T14:03:43.617Z,2.45
2018-09-24T14:06:17.273Z,4.37
2018-09-24T14:08:50.944Z,4.53
2018-09-24T14:11:24.497Z,3.00
2018-09-24T14:13:57.963Z,2.75
2018-09-24T14:16:31.441Z,2.80
2018-09-24T14:19:05.009Z,2.33
2018-09-24T14:21:38.518Z,2.87
2018-09-24T14:24:12.095Z,2.42
2018-09-24T14:26:45.691Z,5.12
2018-09-24T14:29:19.085Z,4.58
2018-09-24T14:31:52.577Z,3.15
2018-09-24T14:34:26.258Z,4.12
2018-09-24T14:36:59.909Z,5.28
2018-09-24T14:39:33.474Z,7.05
2018-09-24T14:42:06.983Z,3.83
2018-09-24T14:44:40.545Z,4.78
2018-09-24T14:47:14.129Z,1.70
2018-09-24T14:49:47.693Z,4.28
2018-09-24T14:52:21.240Z,3.62
2018-09-24T14:54:54.893Z,3.47
2018-09-24T14:57:28.408Z,2.85
2018-09-24T15:00:01.779Z,5.12
2018-09-24T15:02:35.381Z,5.45
2018-09-24T15:05:08.983Z,3.17
2018-09-24T15:07:42.596Z,2.22
2018-09-24T15:10:23.899Z,1.80
2018-09-24T15:13:11.084Z,3.10
2018-09-24T15:15:44.712Z,5.10
2018-09-24T15:18:18.330Z,4.40
2018-09-24T15:20:51.888Z,1.77
2018-09-24T15:23:25.456Z,3.23
2018-09-24T15:25:58.949Z,1.63
2018-09-24T15:28:32.589Z,3.53
2018-09-24T15:31:06.306Z,2.30
2018-09-24T15:33:39.797Z,5.13
2018-09-24T15:36:13.252Z,1.90
2018-09-24T15:38:46.676Z,2.90
2018-09-24T15:41:20.294Z,3.60
2018-09-24T15:43:53.980Z,2.70
2018-09-24T15:46:27.670Z,3.23
2018-09-24T15:49:01.117Z,2.77
2018-09-24T15:51:34.758Z,3.10
2018-09-24T15:54:08.308Z,1.63
2018-09-24T15:56:41.976Z,2.70
2018-09-24T15:59:15.559Z,4.40
2018-09-24T16:01:49.330Z,1.67
2018-09-24T16:04:22.916Z,3.17
2018-09-24T16:06:56.465Z,2.83
2018-09-24T16:09:30.192Z,2.83
2018-09-24T16:12:03.768Z,1.77
2018-09-24T16:14:37.371Z,3.23
2018-09-24T16:17:11.008Z,1.77
2018-09-24T16:19:44.669Z,1.87
2018-09-24T16:22:18.345Z,2.20
2018-09-24T16:24:51.848Z,2.87
2018-09-24T16:27:25.452Z,2.53
2018-09-24T16:29:59.022Z,1.47
2018-09-24T16:32:32.587Z,2.40
2018-09-24T16:35:06.261Z,2.20
2018-09-24T16:37:39.880Z,1.83
2018-09-24T16:40:13.506Z,0.83
2018-09-24T16:42:46.993Z,1.47
2018-09-24T16:45:20.695Z,2.17
2018-09-24T16:47:54.325Z,2.00
2018-09-24T16:50:27.842Z,2.63
2018-09-24T16:53:01.488Z,2.23
2018-09-24T16:55:35.141Z,1.63
2018-09-24T16:58:08.785Z,0.80
2018-09-24T17:00:42.385Z,1.77
2018-09-24T17:03:15.962Z,2.87
2018-09-24T17:05:49.465Z,1.53
2018-09-24T17:08:23.002Z,1.50
2018-09-24T17:10:56.644Z,1.40
2018-09-24T17:13:30.311Z,0.77
2018-09-24T17:16:03.880Z,1.40
2018-09-24T17:18:37.488Z,2.93
2018-09-24T17:21:11.089Z,2.70
2018-09-24T17:23:44.464Z,2.57
2018-09-24T17:26:18.001Z,2.67
2018-09-24T17:28:51.556Z,1.73
2018-09-24T17:31:25.191Z,2.70
2018-09-24T17:33:58.836Z,3.17
2018-09-24T17:36:32.382Z,1.27
2018-09-24T17:39:05.936Z,3.53
2018-09-24T17:41:39.550Z,2.03
2018-09-24T17:44:13.112Z,6.63
2018-09-24T17:46:46.692Z,2.77
2018-09-24T17:49:20.212Z,2.87
2018-09-24T17:51:53.967Z,2.67
2018-09-24T17:54:27.645Z,1.43
2018-09-24T17:57:01.277Z,2.93
2018-09-24T17:59:34.874Z,1.47
2018-09-24T18:02:08.409Z,2.10
2018-09-24T18:04:41.892Z,2.53
2018-09-24T18:07:15.365Z,2.17
2018-09-24T18:09:49.090Z,2.67
2018-09-24T18:12:22.636Z,2.10
2018-09-24T18:14:56.230Z,2.33
2018-09-24T18:17:29.813Z,1.73
2018-09-24T18:20:07.237Z,1.67
2018-09-24T18:22:40.837Z,2.27
2018-09-24T18:25:14.490Z,1.70
2018-09-24T18:27:47.977Z,2.13
2018-09-24T18:30:21.598Z,3.20
2018-09-24T18:32:55.231Z,3.27
2018-09-24T18:35:28.829Z,3.50
2018-09-24T18:38:02.360Z,3.17
2018-09-24T18:40:35.921Z,1.40
2018-09-24T18:43:09.611Z,2.83
2018-09-24T18:45:43.200Z,3.43
2018-09-24T18:48:16.720Z,2.50
2018-09-24T18:50:50.191Z,2.10
2018-09-24T18:53:23.787Z,2.37
2018-09-24T18:55:57.407Z,1.70
2018-09-24T18:58:31.079Z,1.53
2018-09-24T19:01:04.687Z,2.07
2018-09-24T19:03:38.313Z,1.33
2018-09-24T19:06:12.356Z,0.93
2018-09-24T19:08:45.925Z,5.23
2018-09-24T19:11:27.704Z,2.13
2018-09-24T19:13:53.017Z,1.73
2018-09-24T19:16:26.576Z,2.80
2018-09-24T19:19:00.221Z,3.63
2018-09-24T19:21:33.933Z,2.83
2018-09-24T19:24:07.506Z,3.60
2018-09-24T19:26:41.144Z,3.13
2018-09-24T19:29:14.795Z,4.93
2018-09-24T19:31:48.454Z,1.83
2018-09-24T19:34:25.169Z,1.77
2018-09-24T19:36:58.824Z,2.10
2018-09-24T19:39:32.325Z,1.27
2018-09-24T19:42:06.015Z,2.30
2018-09-24T19:48:02.709Z,1.57
2018-09-24T19:50:36.282Z,3.97
2018-09-24T19:53:09.913Z,6.13
2018-09-24T19:55:43.448Z,1.07
2018-09-24T19:58:36.855Z,1.27
2018-09-24T20:01:10.311Z,2.20
2018-09-24T20:03:43.843Z,4.77
2018-09-24T20:06:17.406Z,2.07
2018-09-24T20:08:50.973Z,3.50
2018-09-24T20:11:24.564Z,3.23
2018-09-24T20:13:58.067Z,1.73
2018-09-24T20:16:31.681Z,1.27
2018-09-24T20:19:05.391Z,2.80
2018-09-24T20:21:39.076Z,2.00
2018-09-24T20:24:12.740Z,1.47
2018-09-24T20:26:46.204Z,3.77
2018-09-24T20:29:19.704Z,1.80
2018-09-24T20:31:53.332Z,2.20
2018-09-24T20:34:26.906Z,2.13
2018-09-24T20:37:00.595Z,1.87
2018-09-24T20:39:34.256Z,2.20
2018-09-24T20:42:07.766Z,2.00
2018-09-24T20:44:41.344Z,25.13
2018-09-24T20:47:14.880Z,3.93
2018-09-24T20:49:48.483Z,4.63
2018-09-24T20:52:22.003Z,1.93
2018-09-24T20:54:55.536Z,3.53
2018-09-24T20:57:29.109Z,4.57
2018-09-24T21:00:02.622Z,2.63
2018-09-24T21:02:36.180Z,5.03
2018-09-24T21:05:09.795Z,5.40
2018-09-24T21:07:43.296Z,3.63
2018-09-24T21:10:16.975Z,4.70
2018-09-24T21:12:50.640Z,2.10
2018-09-24T21:15:24.219Z,1.90
2018-09-24T21:17:57.868Z,1.57
2018-09-24T21:20:31.363Z,2.33
2018-09-24T21:23:04.807Z,1.90
2018-09-24T21:25:38.351Z,1.03
2018-09-24T21:28:11.953Z,3.00
2018-09-24T21:30:45.486Z,3.77
2018-09-24T21:33:18.986Z,2.10
2018-09-24T21:35:52.655Z,3.67
2018-09-24T21:38:26.227Z,3.53
2018-09-24T21:40:59.904Z,2.23
2018-09-24T21:43:54.430Z,4.63
2018-09-24T21:46:28.050Z,2.47
2018-09-24T21:49:05.092Z,5.47
2018-09-24T21:51:45.017Z,3.73
2018-09-24T21:57:23.741Z,4.13
2018-09-24T21:59:57.256Z,3.23
2018-09-24T22:02:30.957Z,2.20
2018-09-24T22:05:04.569Z,6.07
2018-09-24T22:07:38.072Z,4.87
2018-09-24T22:10:11.693Z,3.73
2018-09-24T22:12:45.161Z,7.50
2018-09-24T22:15:18.668Z,5.07
2018-09-24T22:17:52.249Z,3.83
2018-09-24T22:20:25.820Z,2.10
2018-09-24T22:22:59.434Z,4.60
2018-09-24T22:25:33.052Z,4.57
2018-09-24T22:28:06.557Z,4.13
2018-09-24T22:30:39.932Z,3.90
2018-09-24T22:33:13.556Z,4.80
2018-09-24T22:35:54.073Z,2.67
2018-09-24T22:38:27.526Z,2.77
2018-09-24T22:41:01.276Z,5.67
2018-09-24T22:43:34.878Z,4.27
2018-09-24T22:46:08.489Z,3.03
2018-09-24T22:48:42.053Z,3.43
2018-09-24T22:51:15.573Z,3.80
2018-09-24T22:53:49.264Z,2.40
2018-09-24T22:56:22.933Z,5.40
2018-09-24T22:58:56.602Z,5.23
2018-09-24T23:01:30.232Z,5.13
2018-09-24T23:04:03.864Z,3.53
2018-09-24T23:06:37.604Z,4.87
2018-09-24T23:09:13.209Z,3.70
2018-09-24T23:11:47.085Z,5.73
2018-09-24T23:14:20.763Z,5.90
2018-09-24T23:16:54.395Z,2.83
2018-09-24T23:19:28.126Z,3.97
2018-09-24T23:22:01.757Z,5.17
2018-09-24T23:24:35.372Z,2.07
2018-09-24T23:27:08.769Z,3.13
2018-09-24T23:29:42.415Z,6.90
2018-09-24T23:32:16.037Z,2.97
2018-09-24T23:34:49.672Z,5.27
2018-09-24T23:37:23.391Z,5.30
2018-09-24T23:39:56.956Z,3.70
2018-09-24T23:42:30.667Z,2.23
2018-09-24T23:45:04.277Z,5.77
2018-09-24T23:47:37.885Z,4.00
2018-09-24T23:50:11.717Z,4.37
2018-09-24T23:52:45.158Z,3.70
2018-09-24T23:55:18.834Z,5.17
2018-09-24T23:57:52.372Z,3.63
